Pacific Titan — WCZ6844 — position and weather

sailwx.info

Track history (hours):
 
Tides and Currents Weather Stations Pressure Air Temp Water Temp Dewpoint Dewpoint Depression Visibility Wind Speed Wind Dir Waves Ship Positions

Pacific Titan

Owner: WESTERN TOWBOAT CO, SEATTLE, WA. More information available from US FCC via Universal Licensing System and Coast Guard Vessel Documentation Center.

Last reported at 2016-Jul-23 16:30 UTC. Time now 2016-Jul-23 17:02 UTC.
Position N 49°26' W 124°04'.

Type: Tow > 200 m length. MMSI: 338855000.

Date/timePositionNaut miles runAvg speedWind from/ knotsBaromVisibWave heightAir tempDewpointWater temp
2016-Jul-23 16:30N 49°26' W 124°04'9 9.2
2016-Jul-23 15:32N 49°21' W 123°52'9 9.0
2016-Jul-23 14:33N 49°16' W 123°41'1010.0
2016-Jul-23 13:33N 49°09' W 123°30'1010.3
2016-Jul-23 12:33N 49°02' W 123°18'1010.5
2016-Jul-23 11:33N 48°55' W 123°06'1010.1
2016-Jul-23 10:33N 48°49' W 122°55'10 9.6
2016-Jul-23 09:33N 48°43' W 122°44'8 7.6
2016-Jul-23 08:33N 48°35' W 122°45'8 7.9
2016-Jul-23 07:33N 48°27' W 122°44'9 9.1
2016-Jul-23 06:33N 48°18' W 122°47'20 9.9
2016-Jul-23 04:33N 47°60' W 122°36'10 9.6
2016-Jul-23 03:33N 47°52' W 122°28'9 9.3
2016-Jul-23 02:33N 47°43' W 122°26'8 8.0
2016-Jul-23 01:34N 47°36' W 122°22'3 2.6
2016-Jul-23 00:33N 47°33' W 122°21'0 0.0
2016-Jul-22 23:33N 47°33' W 122°21'0 0.0
2016-Jul-22 22:33N 47°33' W 122°21'7 6.8
2016-Jul-22 21:33N 47°39' W 122°26'2 2.1
2016-Jul-22 20:33N 47°40' W 122°24'1 1.4
2016-Jul-22 19:33N 47°39' W 122°22'0 0.0
2016-Jul-22 18:33N 47°39' W 122°22'0 0.0
2016-Jul-22 17:33N 47°39' W 122°22'0 0.0
2016-Jul-22 16:33N 47°39' W 122°22'0 0.0
2016-Jul-22 15:33N 47°39' W 122°22'0 0.0
2016-Jul-22 14:33N 47°39' W 122°22'0 0.0
2016-Jul-22 13:33N 47°39' W 122°22'0 0.0
2016-Jul-22 12:33N 47°39' W 122°22'0 0.0
2016-Jul-22 11:33N 47°39' W 122°22'0 0.0
2016-Jul-22 10:33N 47°39' W 122°22'0 0.0
2016-Jul-22 09:33N 47°39' W 122°22'0 0.0
2016-Jul-22 08:33N 47°39' W 122°22'0 0.0
2016-Jul-22 07:33N 47°39' W 122°22'0 0.0
2016-Jul-22 05:33N 47°39' W 122°22'0 0.0
2016-Jul-22 04:34N 47°39' W 122°22'0 0.0
2016-Jul-22 03:33N 47°39' W 122°22'0 0.0
2016-Jul-22 02:33N 47°39' W 122°22'0 0.0
2016-Jul-22 01:33N 47°39' W 122°22'0 0.0
2016-Jul-22 00:33N 47°39' W 122°22'0 0.0
2016-Jul-21 23:33N 47°39' W 122°22'0 0.0
2016-Jul-21 22:33N 47°39' W 122°22'0 0.0
2016-Jul-21 21:34N 47°39' W 122°22'0 0.0
2016-Jul-21 20:33N 47°39' W 122°22'0 0.0
2016-Jul-21 19:33N 47°39' W 122°22'0 0.0
2016-Jul-21 18:33N 47°39' W 122°22'0 0.0
2016-Jul-21 17:33N 47°39' W 122°22'0 0.0
2016-Jul-21 16:33N 47°39' W 122°22'0 0.0
2016-Jul-21 15:33N 47°39' W 122°22'0 0.0
2016-Jul-21 14:33N 47°39' W 122°22'0 0.0
2016-Jul-21 13:33N 47°39' W 122°22'0 0.0
2016-Jul-21 12:33N 47°39' W 122°22'0 0.0
2016-Jul-21 11:33N 47°39' W 122°22'0 0.0
2016-Jul-21 10:33N 47°39' W 122°22'0 0.0
2016-Jul-21 09:33N 47°39' W 122°22'0 0.0
2016-Jul-21 08:33N 47°39' W 122°22'0 0.0
2016-Jul-21 07:33N 47°39' W 122°22'0 0.0
2016-Jul-21 06:33N 47°39' W 122°22'0 0.0
2016-Jul-21 05:33N 47°39' W 122°22'0 0.0
2016-Jul-21 04:33N 47°39' W 122°22'0 0.0
2016-Jul-21 03:33N 47°39' W 122°22'0 0.0
2016-Jul-21 02:33N 47°39' W 122°22'0 0.0
2016-Jul-21 01:33N 47°39' W 122°22'0 0.0
2016-Jul-21 00:33N 47°39' W 122°22'0 0.0
2016-Jul-20 23:33N 47°39' W 122°22'0 0.0
2016-Jul-20 22:33N 47°39' W 122°22'0 0.0
2016-Jul-20 21:34N 47°39' W 122°22'0 0.0
2016-Jul-20 20:33N 47°39' W 122°22'0 0.0
2016-Jul-20 19:33N 47°39' W 122°22'0 0.0
2016-Jul-20 18:33N 47°39' W 122°22'0 0.0
2016-Jul-20 17:33N 47°39' W 122°22'0 0.0
2016-Jul-20 16:33N 47°39' W 122°22'0 0.0
2016-Jul-20 15:33N 47°39' W 122°22'0 0.0
2016-Jul-20 14:33N 47°39' W 122°22'0 0.0
2016-Jul-20 13:33N 47°39' W 122°22'0 0.0
2016-Jul-20 12:33N 47°39' W 122°22'0 0.0
2016-Jul-20 11:34N 47°39' W 122°22'0 0.0
2016-Jul-20 10:33N 47°39' W 122°22'3 3.0
2016-Jul-20 09:34N 47°40' W 122°26'6 5.6
2016-Jul-20 08:33N 47°35' W 122°22'2 2.2
2016-Jul-20 07:33N 47°37' W 122°24'8 8.5
2016-Jul-20 06:34N 47°45' W 122°27'9 9.4
2016-Jul-20 05:33N 47°54' W 122°30'18 7.7
2016-Jul-20 03:16N 48°09' W 122°45'6 8.8
2016-Jul-20 02:33N 48°15' W 122°48'10 9.6
2016-Jul-20 01:33N 48°24' W 122°45'8 7.7
2016-Jul-20 00:33N 48°32' W 122°45'6 5.7
2016-Jul-19 23:33N 48°38' W 122°44'7 7.0
2016-Jul-19 22:33N 48°45' W 122°47'9 8.8
2016-Jul-19 21:33N 48°49' W 122°58'9 9.2
2016-Jul-19 20:33N 48°55' W 123°10'9 9.0
2016-Jul-19 19:33N 49°01' W 123°20'9 9.1
2016-Jul-19 18:33N 49°07' W 123°30'10 9.7
2016-Jul-19 17:33N 49°13' W 123°41'1110.3
2016-Jul-19 16:32N 49°18' W 123°56'1010.3
2016-Jul-19 15:32N 49°23' W 124°10'1010.1
2016-Jul-19 14:32N 49°27' W 124°24'1010.1
2016-Jul-19 13:33N 49°34' W 124°34'1010.1
2016-Jul-19 12:33N 49°42' W 124°44'10 9.7
2016-Jul-19 11:33N 49°49' W 124°55'9 9.5
2016-Jul-19 10:33N 49°55' W 125°06'1211.5
2016-Jul-19 09:33N 50°05' W 125°16'1110.6
2016-Jul-19 08:33N 50°14' W 125°23'38 8.5
2016-Jul-19 04:06N 50°29' W 126°18'6 9.2
2016-Jul-19 03:24N 50°30' W 126°27'9 8.8
2016-Jul-19 02:24N 50°32' W 126°41'6 7.8
2016-Jul-19 01:33N 50°37' W 126°47'1010.1
2016-Jul-19 00:33N 50°43' W 127°01'9 8.8
2016-Jul-18 23:33N 50°47' W 127°12'9 8.5
2016-Jul-18 22:33N 50°53' W 127°22'10 9.9
2016-Jul-18 21:33N 50°59' W 127°34'10 9.5
2016-Jul-18 20:33N 51°06' W 127°45'12 9.7
2016-Jul-18 19:21N 51°16' W 127°53'810.1
2016-Jul-18 18:33N 51°23' W 127°60'  
2016-Jul-14 22:21N 58°15' W 136°10'8 9.9
2016-Jul-14 21:33N 58°17' W 135°55'10 9.5
2016-Jul-14 20:30N 58°16' W 135°36'  
Track history (hours):
 
Tides and Currents Weather Stations Pressure Air Temp Water Temp Dewpoint Dewpoint Depression Visibility Wind Speed Wind Dir Waves Ship Positions

Pacific Titan

Owner: WESTERN TOWBOAT CO, SEATTLE, WA. More information available from US FCC via Universal Licensing System and Coast Guard Vessel Documentation Center.

Last reported at 2016-Jul-23 16:30 UTC. Time now 2016-Jul-23 17:02 UTC.
Position N 49°26' W 124°04'.

Type: Tow > 200 m length. MMSI: 338855000.

Date/timePositionNaut miles runAvg speedWind from/ knotsBaromVisibWave heightAir tempDewpointWater temp
2016-Jul-23 16:30N 49°26' W 124°04'9 9.2
2016-Jul-23 15:32N 49°21' W 123°52'9 9.0
2016-Jul-23 14:33N 49°16' W 123°41'1010.0
2016-Jul-23 13:33N 49°09' W 123°30'1010.3
2016-Jul-23 12:33N 49°02' W 123°18'1010.5
2016-Jul-23 11:33N 48°55' W 123°06'1010.1
2016-Jul-23 10:33N 48°49' W 122°55'10 9.6
2016-Jul-23 09:33N 48°43' W 122°44'8 7.6
2016-Jul-23 08:33N 48°35' W 122°45'8 7.9
2016-Jul-23 07:33N 48°27' W 122°44'9 9.1
2016-Jul-23 06:33N 48°18' W 122°47'20 9.9
2016-Jul-23 04:33N 47°60' W 122°36'10 9.6
2016-Jul-23 03:33N 47°52' W 122°28'9 9.3
2016-Jul-23 02:33N 47°43' W 122°26'8 8.0
2016-Jul-23 01:34N 47°36' W 122°22'3 2.6
2016-Jul-23 00:33N 47°33' W 122°21'0 0.0
2016-Jul-22 23:33N 47°33' W 122°21'0 0.0
2016-Jul-22 22:33N 47°33' W 122°21'7 6.8
2016-Jul-22 21:33N 47°39' W 122°26'2 2.1
2016-Jul-22 20:33N 47°40' W 122°24'1 1.4
2016-Jul-22 19:33N 47°39' W 122°22'0 0.0
2016-Jul-22 18:33N 47°39' W 122°22'0 0.0
2016-Jul-22 17:33N 47°39' W 122°22'0 0.0
2016-Jul-22 16:33N 47°39' W 122°22'0 0.0
2016-Jul-22 15:33N 47°39' W 122°22'0 0.0
2016-Jul-22 14:33N 47°39' W 122°22'0 0.0
2016-Jul-22 13:33N 47°39' W 122°22'0 0.0
2016-Jul-22 12:33N 47°39' W 122°22'0 0.0
2016-Jul-22 11:33N 47°39' W 122°22'0 0.0
2016-Jul-22 10:33N 47°39' W 122°22'0 0.0
2016-Jul-22 09:33N 47°39' W 122°22'0 0.0
2016-Jul-22 08:33N 47°39' W 122°22'0 0.0
2016-Jul-22 07:33N 47°39' W 122°22'0 0.0
2016-Jul-22 05:33N 47°39' W 122°22'0 0.0
2016-Jul-22 04:34N 47°39' W 122°22'0 0.0
2016-Jul-22 03:33N 47°39' W 122°22'0 0.0
2016-Jul-22 02:33N 47°39' W 122°22'0 0.0
2016-Jul-22 01:33N 47°39' W 122°22'0 0.0
2016-Jul-22 00:33N 47°39' W 122°22'0 0.0
2016-Jul-21 23:33N 47°39' W 122°22'0 0.0
2016-Jul-21 22:33N 47°39' W 122°22'0 0.0
2016-Jul-21 21:34N 47°39' W 122°22'0 0.0
2016-Jul-21 20:33N 47°39' W 122°22'0 0.0
2016-Jul-21 19:33N 47°39' W 122°22'0 0.0
2016-Jul-21 18:33N 47°39' W 122°22'0 0.0
2016-Jul-21 17:33N 47°39' W 122°22'0 0.0
2016-Jul-21 16:33N 47°39' W 122°22'0 0.0
2016-Jul-21 15:33N 47°39' W 122°22'0 0.0
2016-Jul-21 14:33N 47°39' W 122°22'0 0.0
2016-Jul-21 13:33N 47°39' W 122°22'0 0.0
2016-Jul-21 12:33N 47°39' W 122°22'0 0.0
2016-Jul-21 11:33N 47°39' W 122°22'0 0.0
2016-Jul-21 10:33N 47°39' W 122°22'0 0.0
2016-Jul-21 09:33N 47°39' W 122°22'0 0.0
2016-Jul-21 08:33N 47°39' W 122°22'0 0.0
2016-Jul-21 07:33N 47°39' W 122°22'0 0.0
2016-Jul-21 06:33N 47°39' W 122°22'0 0.0
2016-Jul-21 05:33N 47°39' W 122°22'0 0.0
2016-Jul-21 04:33N 47°39' W 122°22'0 0.0
2016-Jul-21 03:33N 47°39' W 122°22'0 0.0
2016-Jul-21 02:33N 47°39' W 122°22'0 0.0
2016-Jul-21 01:33N 47°39' W 122°22'0 0.0
2016-Jul-21 00:33N 47°39' W 122°22'0 0.0
2016-Jul-20 23:33N 47°39' W 122°22'0 0.0
2016-Jul-20 22:33N 47°39' W 122°22'0 0.0
2016-Jul-20 21:34N 47°39' W 122°22'0 0.0
2016-Jul-20 20:33N 47°39' W 122°22'0 0.0
2016-Jul-20 19:33N 47°39' W 122°22'0 0.0
2016-Jul-20 18:33N 47°39' W 122°22'0 0.0
2016-Jul-20 17:33N 47°39' W 122°22'0 0.0
2016-Jul-20 16:33N 47°39' W 122°22'0 0.0
2016-Jul-20 15:33N 47°39' W 122°22'0 0.0
2016-Jul-20 14:33N 47°39' W 122°22'0 0.0
2016-Jul-20 13:33N 47°39' W 122°22'0 0.0
2016-Jul-20 12:33N 47°39' W 122°22'0 0.0
2016-Jul-20 11:34N 47°39' W 122°22'0 0.0
2016-Jul-20 10:33N 47°39' W 122°22'3 3.0
2016-Jul-20 09:34N 47°40' W 122°26'6 5.6
2016-Jul-20 08:33N 47°35' W 122°22'2 2.2
2016-Jul-20 07:33N 47°37' W 122°24'8 8.5
2016-Jul-20 06:34N 47°45' W 122°27'9 9.4
2016-Jul-20 05:33N 47°54' W 122°30'18 7.7
2016-Jul-20 03:16N 48°09' W 122°45'6 8.8
2016-Jul-20 02:33N 48°15' W 122°48'10 9.6
2016-Jul-20 01:33N 48°24' W 122°45'8 7.7
2016-Jul-20 00:33N 48°32' W 122°45'6 5.7
2016-Jul-19 23:33N 48°38' W 122°44'7 7.0
2016-Jul-19 22:33N 48°45' W 122°47'9 8.8
2016-Jul-19 21:33N 48°49' W 122°58'9 9.2
2016-Jul-19 20:33N 48°55' W 123°10'9 9.0
2016-Jul-19 19:33N 49°01' W 123°20'9 9.1
2016-Jul-19 18:33N 49°07' W 123°30'10 9.7
2016-Jul-19 17:33N 49°13' W 123°41'1110.3
2016-Jul-19 16:32N 49°18' W 123°56'1010.3
2016-Jul-19 15:32N 49°23' W 124°10'1010.1
2016-Jul-19 14:32N 49°27' W 124°24'1010.1
2016-Jul-19 13:33N 49°34' W 124°34'1010.1
2016-Jul-19 12:33N 49°42' W 124°44'10 9.7
2016-Jul-19 11:33N 49°49' W 124°55'9 9.5
2016-Jul-19 10:33N 49°55' W 125°06'1211.5
2016-Jul-19 09:33N 50°05' W 125°16'1110.6
2016-Jul-19 08:33N 50°14' W 125°23'38 8.5
2016-Jul-19 04:06N 50°29' W 126°18'6 9.2
2016-Jul-19 03:24N 50°30' W 126°27'9 8.8
2016-Jul-19 02:24N 50°32' W 126°41'6 7.8
2016-Jul-19 01:33N 50°37' W 126°47'1010.1
2016-Jul-19 00:33N 50°43' W 127°01'9 8.8
2016-Jul-18 23:33N 50°47' W 127°12'9 8.5
2016-Jul-18 22:33N 50°53' W 127°22'10 9.9
2016-Jul-18 21:33N 50°59' W 127°34'10 9.5
2016-Jul-18 20:33N 51°06' W 127°45'12 9.7
2016-Jul-18 19:21N 51°16' W 127°53'810.1
2016-Jul-18 18:33N 51°23' W 127°60'  
2016-Jul-14 22:21N 58°15' W 136°10'8 9.9
2016-Jul-14 21:33N 58°17' W 135°55'10 9.5
2016-Jul-14 20:30N 58°16' W 135°36'  

Dump ship's entire track history